Time;durP1;ratioP1;P1;durP2;ratioP2;P2;SDS_P1;SDS_P2;PMS_P1;PMS_P2;Temp;Humidity;BMP_temperature;BMP_pressure;BME280_temperature;BME280_humidity;BME280_pressure;Samples;Min_cycle;Max_cycle;Signal;HPM_P1;HPM_P2
2021/08/25 05:22:43;;;;;;;29.90;9.13;;;;;;;24.51;43.60;100954.73;1777832;80;21176;-67
2021/08/25 05:29:27;;;;;;;117.33;53.50;;;;;;;26.77;39.80;100954.17;1778198;79;21247;-70
2021/08/25 05:32:01;;;;;;;99.15;46.28;;;;;;;28.05;37.69;100955.45;1778487;80;21211;-68
2021/08/25 05:34:35;;;;;;;56.75;25.23;;;;;;;28.78;36.68;100960.34;1778255;80;21276;-66
2021/08/25 05:37:09;;;;;;;57.23;19.57;;;;;;;29.58;35.41;100959.73;1778389;80;21203;-69
2021/08/25 05:39:42;;;;;;;34.88;12.30;;;;;;;30.34;34.03;100947.77;1778682;80;21172;-67
2021/08/25 12:47:03;;;;;;;9.75;5.33;;;;;;;30.18;28.89;100681.76;1839079;76;28088;-74
2021/08/25 12:49:37;;;;;;;9.88;5.50;;;;;;;30.13;29.27;100691.16;1820477;77;21320;-75
2021/08/25 12:52:11;;;;;;;9.43;6.08;;;;;;;30.12;29.31;100686.84;1756829;80;21299;-73
2021/08/25 12:54:44;;;;;;;7.08;5.28;;;;;;;30.12;29.31;100677.39;1791442;79;21256;-72
2021/08/25 12:57:17;;;;;;;9.88;5.78;;;;;;;30.15;29.30;100673.63;1779061;79;21326;-72
2021/08/25 12:59:50;;;;;;;;;;;;;;;30.19;29.25;100676.65;1758985;80;21318;-70
2021/08/25 13:02:23;;;;;;;7.22;5.45;;;;;;;30.19;29.08;100670.69;1752637;80;20173;-71
2021/08/25 13:04:56;;;;;;;10.68;5.95;;;;;;;30.18;29.20;100671.77;1757955;80;21722;-70
2021/08/25 13:07:29;;;;;;;11.55;5.70;;;;;;;30.21;29.14;100669.92;1769806;79;21285;-69
2021/08/25 13:10:04;;;;;;;9.10;5.45;;;;;;;30.24;28.53;100671.27;1773234;79;21350;-69
2021/08/25 13:12:37;;;;;;;8.30;5.25;;;;;;;30.24;28.27;100665.34;1749745;80;21141;-72
2021/08/25 13:15:11;;;;;;;8.58;5.62;;;;;;;30.21;28.15;100660.47;1739943;80;21342;-67
2021/08/25 13:17:43;;;;;;;;;;;;;;;30.17;28.95;100659.33;1732331;81;21216;-71
2021/08/25 13:20:16;;;;;;;9.55;5.33;;;;;;;30.13;28.65;100664.15;1750982;80;20226;-73
2021/08/25 13:22:50;;;;;;;10.35;5.40;;;;;;;30.05;29.22;100664.06;1767703;80;21315;-78
2021/08/25 13:25:23;;;;;;;;;;;;;;;30.01;29.27;100662.95;1770774;79;21658;-76
2021/08/25 13:27:55;;;;;;;12.33;5.45;;;;;;;29.98;29.09;100662.92;1749634;80;20318;-73
2021/08/25 13:30:29;;;;;;;8.48;5.40;;;;;;;29.96;29.15;100659.66;1747333;80;21900;-73
2021/08/25 13:33:01;;;;;;;;;;;;;;;29.97;29.14;100662.62;1744101;80;21298;-72
2021/08/25 13:35:34;;;;;;;7.42;4.97;;;;;;;29.98;29.07;100663.45;1742316;81;20292;-71
2021/08/25 13:38:07;;;;;;;8.73;5.28;;;;;;;29.96;29.02;100658.84;1747481;80;21351;-72
2021/08/25 13:40:40;;;;;;;27.58;14.40;;;;;;;29.92;29.11;100659.89;1744071;80;21314;-72
2021/08/25 13:43:16;;;;;;;53.05;31.23;;;;;;;29.88;29.28;100651.18;1743448;80;21286;-75
2021/08/25 13:45:49;;;;;;;65.97;36.90;;;;;;;29.82;29.56;100662.47;1752148;81;21229;-76
2021/08/25 13:48:22;;;;;;;18.12;11.22;;;;;;;29.78;29.90;100663.23;1755397;80;21339;-72
2021/08/25 13:50:55;;;;;;;11.40;6.80;;;;;;;29.73;30.03;100663.95;1748252;80;21277;-72
2021/08/25 13:53:29;;;;;;;7.28;5.45;;;;;;;29.68;29.93;100668.47;1758578;80;21359;-71
2021/08/25 13:56:03;;;;;;;11.70;7.17;;;;;;;29.62;29.93;100662.70;1755095;80;21354;-75
2021/08/25 13:58:36;;;;;;;10.63;6.47;;;;;;;29.56;30.02;100661.84;1749072;80;21326;-71
2021/08/25 14:01:09;;;;;;;10.63;5.83;;;;;;;29.51;29.79;100661.78;1748498;80;21331;-72
2021/08/25 14:03:42;;;;;;;;;;;;;;;29.47;29.96;100663.36;1736105;80;21153;-76
2021/08/25 14:06:15;;;;;;;10.43;5.33;;;;;;;29.43;30.05;100660.86;1743562;81;20205;-73
2021/08/25 14:08:49;;;;;;;6.85;5.53;;;;;;;29.38;30.11;100651.34;1754280;80;21347;-77
2021/08/25 14:11:22;;;;;;;9.80;5.25;;;;;;;29.36;30.15;100653.48;1753150;80;21533;-75
2021/08/25 14:13:55;;;;;;;10.63;6.03;;;;;;;29.32;30.12;100652.36;1745243;80;21845;-76
2021/08/25 14:16:28;;;;;;;7.08;5.30;;;;;;;29.27;30.22;100647.71;1738987;81;21349;-76
2021/08/25 14:19:03;;;;;;;7.83;5.30;;;;;;;29.23;30.24;100649.81;1742040;81;21677;-77
2021/08/25 14:21:36;;;;;;;8.85;4.65;;;;;;;29.19;30.28;100644.08;1738683;81;21378;-77
2021/08/25 14:24:09;;;;;;;10.20;5.70;;;;;;;29.16;30.40;100649.14;1745316;82;21334;-74
2021/08/25 14:26:42;;;;;;;9.75;5.35;;;;;;;29.12;30.67;100648.80;1740961;81;21379;-77
2021/08/25 14:29:19;;;;;;;9.38;5.42;;;;;;;29.08;30.83;100644.16;1738804;81;21398;-77
2021/08/25 14:31:58;;;;;;;11.83;5.42;;;;;;;29.04;30.71;100645.17;1740673;81;21386;-74
2021/08/25 14:34:26;;;;;;;7.62;5.45;;;;;;;29.00;30.80;100645.91;1739900;81;21214;-75
2021/08/25 14:36:59;;;;;;;10.03;6.22;;;;;;;28.96;30.80;100650.17;1744983;82;21277;-78
2021/08/25 14:39:32;;;;;;;17.02;6.05;;;;;;;28.90;31.13;100649.27;1742714;81;21294;-77
2021/08/25 14:42:06;;;;;;;27.15;10.72;;;;;;;28.85;31.34;100647.05;1739472;81;21282;-77
2021/08/25 14:44:38;;;;;;;;;;;;;;;28.79;31.37;100648.02;1767951;80;21270;-76
2021/08/25 14:47:11;;;;;;;33.80;18.12;;;;;;;28.73;31.29;100642.28;1781443;80;20592;-77
2021/08/25 14:49:44;;;;;;;;;;;;;;;28.65;31.49;100638.11;1779456;79;21305;-76
2021/08/25 14:52:16;;;;;;;9.90;6.72;;;;;;;28.58;31.53;100640.13;1780727;80;20261;-75
2021/08/25 14:54:50;;;;;;;51.28;25.88;;;;;;;28.47;31.60;100631.04;1789198;80;21283;-77
2021/08/25 14:57:24;;;;;;;94.20;46.65;;;;;;;28.40;31.89;100628.21;1753615;80;21250;-75
2021/08/25 14:59:58;;;;;;;78.35;37.67;;;;;;;28.32;32.09;100634.02;1731895;81;21184;-79
2021/08/25 15:02:31;;;;;;;45.60;21.42;;;;;;;28.24;32.31;100633.87;1746851;80;21282;-77
2021/08/25 15:05:04;;;;;;;;;;;;;;;28.16;32.43;100632.91;1747532;81;21280;-76
2021/08/25 15:07:36;;;;;;;47.88;24.35;;;;;;;28.09;32.50;100632.80;1742320;81;20658;-77
2021/08/25 15:10:12;;;;;;;50.40;18.77;;;;;;;28.00;32.64;100637.21;1757788;80;21338;-76
2021/08/25 15:12:45;;;;;;;17.32;8.98;;;;;;;27.93;32.72;100641.06;1753583;81;21948;-77
2021/08/25 15:15:18;;;;;;;15.18;7.25;;;;;;;27.87;32.84;100642.83;1754672;80;21801;-74
2021/08/25 15:17:51;;;;;;;10.35;7.10;;;;;;;27.81;32.91;100647.02;1753075;81;21298;-75
2021/08/25 15:20:24;;;;;;;21.87;9.28;;;;;;;27.72;33.10;100641.20;1751965;81;21207;-76
2021/08/25 15:22:58;;;;;;;17.67;8.55;;;;;;;27.65;33.28;100643.22;1753899;81;21246;-77
2021/08/25 15:25:32;;;;;;;18.98;11.03;;;;;;;27.56;33.57;100646.52;1751753;81;21247;-76
2021/08/25 15:28:06;;;;;;;;;;;;;;;27.48;33.71;100640.97;1767948;80;21358;-75
2021/08/25 15:30:38;;;;;;;17.65;9.43;;;;;;;27.38;33.85;100638.06;1766432;80;20266;-76
2021/08/25 15:33:13;;;;;;;34.23;19.27;;;;;;;27.28;34.00;100639.97;1755098;81;21267;-76
2021/08/25 15:35:46;;;;;;;37.63;18.20;;;;;;;27.20;34.30;100639.53;1767019;80;21308;-75
2021/08/25 15:38:19;;;;;;;71.15;34.38;;;;;;;27.12;34.43;100638.02;1755743;81;21283;-75
2021/08/25 15:40:53;;;;;;;100.67;52.73;;;;;;;26.95;34.91;100637.59;1766644;80;21228;-74
2021/08/25 15:43:28;;;;;;;115.45;59.10;;;;;;;26.95;34.91;100637.59;1751888;81;21219;-74
2021/08/25 15:46:01;;;;;;;73.62;40.17;;;;;;;26.86;34.97;100627.73;1764427;80;21270;-74
2021/08/25 15:48:36;;;;;;;46.73;24.18;;;;;;;26.77;35.22;100633.16;1758476;80;21212;-73
2021/08/25 15:51:10;;;;;;;37.78;20.55;;;;;;;26.67;35.50;100635.05;1767275;80;21275;-75
2021/08/25 15:53:43;;;;;;;36.25;15.85;;;;;;;26.57;35.68;100633.97;1764562;80;21363;-74
2021/08/25 15:56:20;;;;;;;55.08;17.70;;;;;;;26.46;35.78;100634.23;1752543;81;21302;-75
2021/08/25 15:58:55;;;;;;;42.73;18.90;;;;;;;26.38;35.97;100641.81;1764798;80;21261;-75
2021/08/25 16:01:28;;;;;;;41.45;16.82;;;;;;;26.27;36.08;100634.55;1754738;81;21156;-73
2021/08/25 16:04:02;;;;;;;31.20;12.00;;;;;;;26.18;36.18;100638.58;1765063;80;21158;-71
2021/08/25 16:06:35;;;;;;;21.35;9.73;;;;;;;26.06;36.30;100635.31;1745202;80;21291;-73
2021/08/25 16:09:08;;;;;;;21.40;9.25;;;;;;;26.00;36.50;100640.27;1755719;81;21274;-74
2021/08/25 16:11:42;;;;;;;16.70;8.50;;;;;;;25.91;36.67;100641.59;1734868;82;21280;-74
2021/08/25 16:14:15;;;;;;;18.85;8.43;;;;;;;25.83;36.75;100641.11;1732974;81;21201;-73
2021/08/25 16:16:49;;;;;;;21.62;8.43;;;;;;;25.74;36.87;100639.78;1739168;82;21245;-73
2021/08/25 16:19:21;;;;;;;;;;;;;;;25.66;37.00;100648.13;1731488;81;21726;-72
2021/08/25 16:21:54;;;;;;;327.38;168.25;;;;;;;25.58;37.16;100645.77;1736272;82;20240;-74
2021/08/25 16:24:28;;;;;;;461.05;261.12;;;;;;;25.48;37.40;100652.16;1746311;82;21174;-72
2021/08/25 16:27:00;;;;;;;;;;;;;;;25.39;37.52;100645.72;1751315;82;21232;-73
2021/08/25 16:29:35;;;;;;;390.00;194.55;;;;;;;25.32;37.62;100651.67;1744356;82;20268;-73
2021/08/25 16:32:09;;;;;;;451.55;246.45;;;;;;;25.22;37.73;100653.23;1749221;82;21774;-73
2021/08/25 16:34:42;;;;;;;113.85;56.23;;;;;;;25.15;37.93;100649.81;1746636;82;21224;-74
2021/08/25 16:37:15;;;;;;;50.55;24.15;;;;;;;25.08;38.04;100657.89;1739939;82;21328;-71
2021/08/25 16:39:53;;;;;;;46.02;16.25;;;;;;;25.01;38.21;100657.13;1742327;82;21153;-72
2021/08/25 16:42:28;;;;;;;64.17;26.50;;;;;;;24.94;38.39;100657.71;1750580;82;21275;-72
2021/08/25 16:45:04;;;;;;;200.30;54.85;;;;;;;24.85;38.87;100659.55;1743401;82;21339;-71
2021/08/25 16:47:39;;;;;;;137.62;54.27;;;;;;;24.77;41.25;100669.21;1769968;80;21285;-71
2021/08/25 16:50:13;;;;;;;156.32;61.50;;;;;;;24.60;41.05;100663.52;1775050;80;21274;-71
2021/08/25 16:52:46;;;;;;;149.75;58.78;;;;;;;24.48;40.59;100666.07;1778383;80;21924;-71
2021/08/25 16:55:20;;;;;;;147.17;56.58;;;;;;;24.40;42.28;100662.84;1755100;81;21334;-71
2021/08/25 16:57:55;;;;;;;127.75;52.50;;;;;;;24.27;43.01;100662.41;1762198;80;21310;-71
2021/08/25 17:00:28;;;;;;;65.00;29.00;;;;;;;24.17;43.41;100670.07;1765406;80;21337;-70
2021/08/25 17:03:02;;;;;;;76.07;32.95;;;;;;;24.06;43.59;100672.06;1753903;81;21293;-70
2021/08/25 17:05:35;;;;;;;;;;;;;;;23.95;43.86;100668.19;1761743;80;21195;-72
2021/08/25 17:08:09;;;;;;;41.85;17.75;;;;;;;23.85;44.08;100675.88;1757756;80;20214;-69
2021/08/25 17:10:43;;;;;;;60.80;16.90;;;;;;;23.73;44.41;100677.56;1731122;81;21219;-72
2021/08/25 17:13:16;;;;;;;51.95;15.93;;;;;;;23.61;44.77;100680.58;1766138;80;21213;-74
2021/08/25 17:15:49;;;;;;;38.58;14.83;;;;;;;23.47;45.00;100676.30;1754308;81;21199;-71
2021/08/25 17:18:23;;;;;;;49.80;16.77;;;;;;;23.36;45.22;100678.27;1764476;80;22522;-71
2021/08/25 17:20:57;;;;;;;62.08;20.97;;;;;;;23.27;45.08;100681.66;1754493;81;21785;-72
2021/08/25 17:23:30;;;;;;;95.42;25.20;;;;;;;23.16;45.93;100678.80;1756384;80;21140;-71
2021/08/25 17:26:03;;;;;;;88.15;23.75;;;;;;;23.04;46.37;100675.94;1760421;80;21187;-71
2021/08/25 17:28:37;;;;;;;67.97;23.55;;;;;;;;;;1764532;80;21709;-72
2021/08/25 17:31:10;;;;;;;109.25;27.20;;;;;;;22.88;47.05;100674.20;1766309;80;21225;-71
2021/08/25 17:33:45;;;;;;;101.80;32.45;;;;;;;22.79;47.51;100667.72;1754968;81;21357;-71
2021/08/25 17:36:22;;;;;;;75.57;30.97;;;;;;;22.71;47.91;100669.78;1768774;81;21162;-71
2021/08/25 17:38:55;;;;;;;73.75;31.97;;;;;;;22.64;48.15;100672.96;1754053;80;21800;-71
2021/08/25 17:41:28;;;;;;;261.52;111.45;;;;;;;22.55;48.23;100663.45;1757224;80;21306;-71
2021/08/25 17:44:01;;;;;;;220.17;105.52;;;;;;;22.47;48.77;100660.49;1757427;80;21291;-71
2021/08/25 17:46:36;;;;;;;190.20;88.87;;;;;;;22.38;49.11;100660.35;1758558;80;21897;-71
2021/08/25 17:49:09;;;;;;;232.35;104.20;;;;;;;22.29;48.90;100656.74;1761680;81;21284;-71
2021/08/25 17:51:42;;;;;;;172.98;79.70;;;;;;;22.21;49.38;100651.61;1755767;81;21326;-71
2021/08/25 17:54:16;;;;;;;178.57;89.87;;;;;;;22.13;49.60;100664.11;1767723;81;21372;-71
2021/08/25 17:56:48;;;;;;;;;;;;;;;22.04;49.76;100660.49;1755333;81;21307;-71
2021/08/25 17:59:21;;;;;;;79.32;42.10;;;;;;;21.95;49.84;100665.16;1767579;80;20231;-71
2021/08/25 18:01:55;;;;;;;57.33;31.60;;;;;;;21.84;49.42;100664.41;1768739;80;21225;-70
2021/08/25 18:04:30;;;;;;;51.30;26.95;;;;;;;21.77;49.31;100666.20;1754264;81;21361;-71
2021/08/25 18:07:03;;;;;;;63.45;30.77;;;;;;;21.70;49.15;100660.02;1735311;82;21354;-71
2021/08/25 18:09:36;;;;;;;56.85;30.72;;;;;;;21.64;49.26;100663.98;1733990;82;21337;-71
2021/08/25 18:12:10;;;;;;;75.08;37.20;;;;;;;21.58;49.37;100666.09;1736119;80;21224;-71
2021/08/25 18:14:45;;;;;;;84.07;41.75;;;;;;;21.51;49.69;100664.73;1740415;80;21191;-70
2021/08/25 18:17:18;;;;;;;63.10;32.35;;;;;;;21.45;50.31;100669.00;1753037;81;21302;-71
2021/08/25 18:19:52;;;;;;;48.40;23.18;;;;;;;21.38;50.64;100668.14;1731580;82;21308;-70
2021/08/25 18:22:25;;;;;;;47.17;21.73;;;;;;;21.33;50.59;100662.58;1736335;82;21323;-72
2021/08/25 18:24:58;;;;;;;51.23;29.15;;;;;;;21.28;50.42;100670.33;1747950;82;21752;-71
2021/08/25 18:27:32;;;;;;;42.60;26.23;;;;;;;21.24;50.64;100670.91;1744253;81;21187;-71
2021/08/25 18:30:07;;;;;;;34.75;19.45;;;;;;;21.20;50.41;100666.50;1744827;82;21195;-71
2021/08/25 18:32:40;;;;;;;26.25;15.80;;;;;;;21.19;50.33;100668.84;1746139;82;21816;-70
2021/08/25 18:35:13;;;;;;;26.20;14.18;;;;;;;21.17;50.14;100668.21;1732430;82;21314;-71
2021/08/25 18:37:46;;;;;;;25.88;15.80;;;;;;;21.17;49.83;100666.05;1731221;82;21208;-71
2021/08/25 18:40:20;;;;;;;38.80;16.60;;;;;;;21.20;49.88;100669.67;1730598;82;21189;-71
2021/08/25 18:42:55;;;;;;;52.70;23.57;;;;;;;21.22;49.50;100670.29;1734203;82;21185;-70
2021/08/25 18:45:28;;;;;;;44.95;21.50;;;;;;;21.26;50.11;100668.88;1738977;81;21183;-70
2021/08/25 18:48:01;;;;;;;45.90;20.37;;;;;;;21.28;50.30;100676.98;1738210;81;21317;-71
2021/08/25 18:50:34;;;;;;;55.95;18.62;;;;;;;21.29;50.41;100673.81;1741651;81;21200;-70
2021/08/25 18:53:08;;;;;;;25.30;13.55;;;;;;;21.27;50.20;100675.36;1741030;81;21258;-71
2021/08/25 18:55:44;;;;;;;32.33;10.45;;;;;;;21.26;50.13;100679.52;1742960;82;21184;-71
2021/08/25 18:58:17;;;;;;;19.37;9.93;;;;;;;21.26;49.79;100677.69;1744788;81;21315;-70
2021/08/25 19:00:52;;;;;;;16.55;9.15;;;;;;;21.27;49.38;100680.68;1745810;82;21307;-69
2021/08/25 19:03:26;;;;;;;20.30;10.48;;;;;;;21.29;49.24;100682.64;1712955;82;21308;-72
2021/08/25 19:05:59;;;;;;;23.20;11.35;;;;;;;21.33;49.14;100680.39;1741669;82;21283;-71
2021/08/25 19:08:32;;;;;;;36.42;11.00;;;;;;;21.37;49.05;100679.00;1744242;81;21311;-71
2021/08/25 19:11:06;;;;;;;32.30;9.85;;;;;;;21.39;49.04;100679.12;1738041;81;21313;-69
2021/08/25 19:13:39;;;;;;;20.43;9.30;;;;;;;21.40;49.07;100674.59;1741625;82;21288;-70
2021/08/25 19:16:12;;;;;;;15.32;9.00;;;;;;;21.40;49.04;100682.58;1746298;81;21227;-70
2021/08/25 19:18:45;;;;;;;17.40;9.68;;;;;;;21.38;48.98;100681.45;1744885;81;21379;-71
2021/08/25 19:21:19;;;;;;;30.32;9.90;;;;;;;21.36;48.86;100680.00;1742177;81;21840;-70
2021/08/25 19:23:52;;;;;;;26.30;9.68;;;;;;;21.33;48.89;100687.05;1739160;81;21202;-70
2021/08/25 19:26:25;;;;;;;16.95;8.35;;;;;;;21.31;48.90;100686.42;1738251;81;21286;-71
2021/08/25 19:28:58;;;;;;;15.38;8.95;;;;;;;21.27;48.82;100691.33;1741557;81;21224;-71
2021/08/25 19:31:32;;;;;;;16.02;9.05;;;;;;;21.24;48.67;100695.70;1743876;82;21141;-71
2021/08/25 19:34:05;;;;;;;22.13;11.83;;;;;;;21.22;48.86;100692.92;1743434;82;21258;-70
2021/08/25 19:36:41;;;;;;;30.52;13.22;;;;;;;21.20;49.18;100694.46;1742385;81;22100;-71
2021/08/25 19:39:14;;;;;;;22.20;12.70;;;;;;;21.18;49.64;100700.99;1740728;81;21278;-70
2021/08/25 19:41:48;;;;;;;25.50;9.98;;;;;;;21.15;49.80;100706.70;1741696;81;21189;-71
2021/08/25 19:44:22;;;;;;;21.48;9.45;;;;;;;21.10;50.04;100705.95;1739948;81;21189;-70
2021/08/25 19:46:55;;;;;;;17.20;9.73;;;;;;;21.04;49.84;100704.55;1745581;82;21375;-71
2021/08/25 19:49:29;;;;;;;21.57;12.82;;;;;;;20.97;49.38;100696.48;1745865;82;21291;-71
2021/08/25 19:52:02;;;;;;;14.40;9.38;;;;;;;20.97;49.13;100698.34;1741571;81;21800;-70
2021/08/25 19:54:37;;;;;;;17.15;8.83;;;;;;;20.96;49.13;100696.69;1740214;81;21210;-71
2021/08/25 19:57:11;;;;;;;14.90;8.28;;;;;;;20.93;49.26;100703.21;1741559;81;21267;-71
2021/08/25 19:59:45;;;;;;;13.93;7.87;;;;;;;20.92;48.90;100710.07;1743405;81;21681;-70
2021/08/25 20:02:17;;;;;;;13.63;8.27;;;;;;;20.91;48.52;100711.91;1747888;80;21185;-71
2021/08/25 20:04:51;;;;;;;15.25;8.10;;;;;;;20.89;48.84;100711.28;1780496;80;21278;-71
2021/08/25 20:07:24;;;;;;;13.75;8.18;;;;;;;20.87;48.85;100712.48;1777466;79;22505;-71
2021/08/25 20:09:57;;;;;;;;;;;;;;;20.82;48.77;100708.53;1787825;80;21137;-70
2021/08/25 20:12:31;;;;;;;20.08;8.00;;;;;;;20.78;49.55;100703.28;1788194;80;20173;-70
2021/08/25 20:15:06;;;;;;;11.28;7.30;;;;;;;20.72;48.91;100704.56;1789556;80;21280;-70
2021/08/25 20:17:39;;;;;;;12.68;7.50;;;;;;;20.69;48.87;100705.77;1768429;79;21310;-70
2021/08/25 20:20:13;;;;;;;12.50;8.38;;;;;;;20.69;48.72;100705.77;1782343;80;21256;-71
2021/08/25 20:22:46;;;;;;;23.80;11.48;;;;;;;20.69;48.83;100702.28;1774761;80;21877;-72
2021/08/25 20:25:20;;;;;;;16.60;9.38;;;;;;;20.68;49.18;100697.45;1761334;80;21227;-70
2021/08/25 20:27:53;;;;;;;16.20;9.70;;;;;;;20.67;49.29;100714.95;1786987;79;21390;-70
2021/08/25 20:30:26;;;;;;;30.52;11.00;;;;;;;20.62;49.47;100712.86;1760235;80;21325;-72
2021/08/25 20:32:59;;;;;;;39.08;16.15;;;;;;;20.58;49.83;100710.78;1764507;80;21184;-70
2021/08/25 20:35:32;;;;;;;30.45;14.45;;;;;;;20.52;50.17;100708.36;1786805;80;21275;-70
2021/08/25 20:38:05;;;;;;;26.33;12.33;;;;;;;20.45;50.80;100711.45;1778418;80;21829;-69
2021/08/25 20:40:39;;;;;;;21.77;12.35;;;;;;;20.38;50.95;100709.73;1769261;80;21261;-69
2021/08/25 20:43:12;;;;;;;14.23;10.53;;;;;;;20.29;50.95;100703.72;1786944;79;21255;-69
2021/08/25 20:45:45;;;;;;;16.35;9.50;;;;;;;20.20;50.74;100702.16;1781558;80;21342;-70
2021/08/25 20:48:18;;;;;;;15.53;8.53;;;;;;;20.14;50.71;100708.20;1773230;80;21206;-71
2021/08/25 20:50:51;;;;;;;13.25;8.35;;;;;;;20.07;50.68;100707.31;1784046;80;21307;-70
2021/08/25 20:53:24;;;;;;;14.65;8.48;;;;;;;20.01;50.70;100707.54;1776936;80;21899;-70
2021/08/25 20:55:58;;;;;;;15.72;8.10;;;;;;;19.96;50.94;100711.28;1776549;80;21258;-70
2021/08/25 20:58:31;;;;;;;9.18;6.75;;;;;;;19.89;51.13;100716.19;1786457;80;21248;-69
2021/08/25 21:01:06;;;;;;;11.50;7.62;;;;;;;19.83;50.96;100720.40;1781334;80;21853;-70
2021/08/25 21:03:39;;;;;;;;;;;;;;;19.79;50.66;100717.80;1779326;80;21267;-70
2021/08/25 21:06:12;;;;;;;17.50;6.70;;;;;;;19.77;50.44;100718.99;1766112;79;20218;-70
2021/08/25 21:08:47;;;;;;;11.63;7.10;;;;;;;19.74;50.50;100718.86;1776697;80;21357;-70
2021/08/25 21:11:20;;;;;;;11.38;7.20;;;;;;;19.71;50.57;100720.55;1764005;80;21266;-69
2021/08/25 21:13:53;;;;;;;11.43;6.75;;;;;;;19.68;50.75;100716.12;1775685;80;21188;-70
2021/08/25 21:16:26;;;;;;;11.28;7.03;;;;;;;19.65;50.88;100715.14;1762190;80;21294;-71
2021/08/25 21:19:00;;;;;;;13.22;7.05;;;;;;;19.62;50.85;100723.48;1762365;80;21338;-70
2021/08/25 21:21:33;;;;;;;20.45;7.03;;;;;;;19.55;51.21;100718.08;1785768;79;21260;-71
2021/08/25 21:24:06;;;;;;;14.03;7.07;;;;;;;19.49;51.38;100718.79;1764839;80;21188;-71
2021/08/25 21:26:40;;;;;;;14.80;7.22;;;;;;;19.41;51.53;100711.76;1788898;79;21363;-70
2021/08/25 21:29:13;;;;;;;12.03;6.97;;;;;;;19.35;51.60;100715.59;1778876;80;21267;-70
2021/08/25 21:31:46;;;;;;;13.03;7.10;;;;;;;19.30;51.79;100712.16;1789407;80;21259;-71
2021/08/25 21:34:19;;;;;;;13.55;8.23;;;;;;;19.23;51.99;100714.38;1777556;80;21197;-70
2021/08/25 21:36:53;;;;;;;13.60;7.50;;;;;;;19.16;52.07;100714.28;1757226;80;21203;-70
2021/08/25 21:39:26;;;;;;;12.80;7.20;;;;;;;19.09;52.10;100706.72;1785632;80;21291;-71
2021/08/25 21:41:59;;;;;;;17.25;8.15;;;;;;;19.04;52.17;100712.23;1768748;80;21259;-69
2021/08/25 21:44:32;;;;;;;11.67;7.23;;;;;;;19.01;52.38;100715.27;1788127;79;21255;-70
2021/08/25 21:47:06;;;;;;;12.20;7.42;;;;;;;18.95;52.53;100710.17;1764591;80;21868;-70
2021/08/25 21:49:40;;;;;;;12.37;7.47;;;;;;;18.90;52.54;100709.05;1774473;80;21183;-69
2021/08/25 21:52:13;;;;;;;13.23;7.33;;;;;;;18.86;52.71;100716.55;1787006;79;21208;-70
2021/08/25 21:54:47;;;;;;;10.68;7.03;;;;;;;18.81;52.89;100714.44;1767214;80;21279;-70
2021/08/25 21:57:26;;;;;;;12.30;6.65;;;;;;;18.77;53.06;100716.30;1784146;79;21161;-70
2021/08/25 22:00:17;;;;;;;10.68;5.85;;;;;;;18.72;52.94;100714.15;1776909;80;21274;-68
2021/08/25 22:02:46;;;;;;;7.95;5.20;;;;;;;18.67;52.97;100712.56;1784654;80;21223;-71
2021/08/25 22:05:20;;;;;;;9.95;4.72;;;;;;;18.62;53.00;100716.73;1775170;80;21762;-71
2021/08/25 22:07:54;;;;;;;13.85;4.95;;;;;;;18.57;52.96;100711.13;1758706;80;21222;-69
2021/08/25 22:10:28;;;;;;;11.25;4.90;;;;;;;18.54;53.01;100710.98;1744505;80;21279;-69
2021/08/25 22:13:01;;;;;;;8.63;4.35;;;;;;;18.53;52.96;100708.52;1754368;81;21283;-71
2021/08/25 22:15:34;;;;;;;8.00;4.47;;;;;;;18.50;52.94;100713.67;1754856;80;21211;-70
2021/08/25 22:18:08;;;;;;;8.95;4.62;;;;;;;18.49;52.91;100716.47;1753020;81;21266;-70
2021/08/25 22:20:41;;;;;;;8.38;4.55;;;;;;;18.47;52.89;100703.90;1754156;81;21682;-71
2021/08/25 22:23:14;;;;;;;9.90;4.80;;;;;;;18.45;52.84;100708.03;1755944;81;21635;-70
2021/08/25 22:25:47;;;;;;;6.85;3.87;;;;;;;18.44;52.82;100713.00;1754122;81;21258;-70
2021/08/25 22:28:21;;;;;;;9.95;4.17;;;;;;;18.43;52.82;100713.19;1753135;81;21334;-70
2021/08/25 22:30:54;;;;;;;5.30;3.33;;;;;;;18.42;52.82;100711.52;1753475;80;21259;-70
2021/08/25 22:33:27;;;;;;;5.83;3.62;;;;;;;18.40;52.84;100706.41;1754145;81;21279;-70
2021/08/25 22:36:00;;;;;;;5.95;3.37;;;;;;;18.38;52.84;100707.58;1755969;81;21200;-71
2021/08/25 22:38:34;;;;;;;5.33;3.22;;;;;;;18.38;52.83;100710.23;1754764;81;21372;-72
2021/08/25 22:41:07;;;;;;;5.67;3.30;;;;;;;18.35;52.79;100707.42;1755170;81;21318;-72
2021/08/25 22:43:40;;;;;;;5.58;3.60;;;;;;;18.35;52.74;100712.73;1755293;80;21267;-71
2021/08/25 22:46:14;;;;;;;5.60;3.45;;;;;;;18.36;52.72;100715.72;1754102;81;21310;-72
2021/08/25 22:48:47;;;;;;;;;;;;;;;18.36;52.72;100704.28;1755552;81;21330;-72
2021/08/25 22:51:20;;;;;;;6.10;3.40;;;;;;;18.34;52.73;100701.78;1737628;82;20702;-73
2021/08/25 22:53:53;;;;;;;6.17;3.08;;;;;;;18.30;52.78;100704.97;1753625;81;21180;-71
2021/08/25 22:56:26;;;;;;;5.47;3.10;;;;;;;18.28;52.82;100709.13;1753229;81;21223;-72
2021/08/25 22:58:59;;;;;;;7.75;3.40;;;;;;;18.27;52.92;100707.98;1754026;80;21287;-71
2021/08/25 23:01:32;;;;;;;4.40;3.05;;;;;;;18.25;52.97;100716.09;1752992;80;21909;-73
2021/08/25 23:04:06;;;;;;;4.90;3.12;;;;;;;18.22;53.02;100711.66;1755630;81;21278;-70
2021/08/25 23:06:41;;;;;;;6.58;3.40;;;;;;;18.20;53.13;100715.79;1754323;81;21651;-72
2021/08/25 23:09:13;;;;;;;;;;;;;;;18.17;53.24;100707.69;1758355;81;21282;-72
2021/08/25 23:11:46;;;;;;;6.90;3.50;;;;;;;18.15;53.33;100709.69;1732935;82;20237;-71
2021/08/25 23:14:19;;;;;;;4.72;3.00;;;;;;;18.10;53.49;100709.38;1756254;81;21259;-69
2021/08/25 23:16:53;;;;;;;7.80;3.17;;;;;;;18.08;53.53;100712.70;1751877;80;21259;-71
2021/08/25 23:19:26;;;;;;;6.62;3.08;;;;;;;18.05;53.57;100706.45;1744508;81;21169;-71
2021/08/25 23:22:00;;;;;;;7.85;3.65;;;;;;;18.03;53.67;100701.00;1746491;81;21190;-71
2021/08/25 23:24:33;;;;;;;6.47;3.27;;;;;;;18.00;53.77;100704.81;1744177;81;21263;-71
2021/08/25 23:27:07;;;;;;;4.55;2.98;;;;;;;17.99;53.76;100708.45;1743483;81;21251;-71
2021/08/25 23:29:39;;;;;;;;;;;;;;;17.97;53.78;100701.67;1748946;81;21338;-71
2021/08/25 23:32:12;;;;;;;8.05;2.92;;;;;;;17.96;53.83;100699.52;1751918;82;20302;-70
2021/08/25 23:34:45;;;;;;;4.65;2.90;;;;;;;17.93;53.87;100699.88;1741375;82;21308;-71
2021/08/25 23:37:18;;;;;;;5.60;3.15;;;;;;;17.91;53.90;100705.02;1770272;80;21825;-70
2021/08/25 23:39:51;;;;;;;5.47;2.50;;;;;;;17.89;53.91;100699.05;1740493;81;21283;-70
2021/08/25 23:42:26;;;;;;;8.58;3.62;;;;;;;17.89;53.99;100704.34;1741744;82;21187;-71
2021/08/25 23:44:59;;;;;;;7.25;2.80;;;;;;;17.87;54.02;100702.38;1741466;82;21790;-70
2021/08/25 23:47:32;;;;;;;6.03;2.70;;;;;;;17.86;54.04;100704.71;1741113;82;21160;-72
2021/08/25 23:50:06;;;;;;;8.48;3.12;;;;;;;17.84;54.04;100703.54;1740005;82;22106;-71
2021/08/25 23:52:38;;;;;;;;;;;;;;;17.83;54.00;100707.20;1755043;81;21298;-70
2021/08/25 23:55:11;;;;;;;4.12;2.52;;;;;;;17.82;54.06;100706.86;1751604;81;20212;-71
2021/08/25 23:57:45;;;;;;;8.23;2.85;;;;;;;17.78;54.16;100705.56;1770639;80;21326;-71
